createdAt,value
2019-01-04T17:20:21.897Z,84.20
2019-01-04T17:22:50.231Z,83.87
2019-01-04T17:25:18.702Z,85.10
2019-01-04T17:27:47.008Z,82.29
2019-01-04T17:30:15.345Z,86.16
2019-01-04T17:32:44.011Z,85.61
2019-01-04T17:35:12.342Z,80.62
2019-01-04T17:37:40.655Z,77.84
2019-01-04T17:40:09.650Z,77.72
2019-01-04T17:42:37.969Z,80.81
2019-01-04T17:45:07.542Z,81.98
2019-01-04T17:47:35.856Z,80.92
2019-01-04T17:50:04.918Z,80.71
2019-01-04T17:52:33.229Z,83.63
2019-01-04T17:55:01.558Z,83.87
2019-01-04T17:57:29.863Z,88.31
2019-01-04T17:59:58.190Z,85.31
2019-01-04T18:02:26.500Z,85.97
2019-01-04T18:04:54.832Z,84.91
2019-01-04T18:07:23.146Z,85.71
2019-01-04T18:09:51.473Z,86.93
2019-01-04T18:12:19.779Z,88.84
2019-01-04T18:14:48.170Z,86.42
2019-01-04T18:17:16.827Z,86.69
2019-01-04T18:19:45.169Z,83.78
2019-01-04T18:22:13.475Z,84.85
2019-01-04T18:24:41.990Z,83.99
2019-01-04T18:27:10.312Z,87.50
2019-01-04T18:29:38.647Z,85.96
2019-01-04T18:32:07.320Z,87.17
2019-01-04T18:34:35.665Z,86.25
2019-01-04T18:37:03.985Z,88.13
2019-01-04T18:39:32.318Z,84.18
2019-01-04T18:42:00.697Z,86.98
2019-01-04T18:44:29.025Z,89.20
2019-01-04T18:46:57.336Z,86.72
2019-01-04T18:49:26.098Z,85.51
2019-01-04T18:51:54.793Z,88.18
2019-01-04T18:54:23.126Z,86.94
2019-01-04T18:56:51.575Z,85.94
2019-01-04T18:59:19.913Z,85.80
2019-01-04T19:01:48.215Z,88.55
2019-01-04T19:04:16.636Z,91.13
2019-01-04T19:06:45.085Z,90.28
2019-01-04T19:09:13.762Z,88.77
2019-01-04T19:11:43.553Z,89.87
2019-01-04T19:14:12.281Z,90.90
2019-01-04T19:16:40.592Z,85.47
2019-01-04T19:19:08.990Z,88.87
2019-01-04T19:21:37.372Z,91.82
2019-01-04T19:24:05.772Z,87.85
2019-01-04T19:26:34.189Z,85.58
2019-01-04T19:29:02.527Z,87.90
2019-01-04T19:31:30.842Z,100.00
2019-01-04T19:33:59.160Z,97.47
2019-01-04T19:36:27.714Z,92.86
2019-01-04T19:38:56.020Z,90.90
2019-01-04T19:41:24.328Z,91.19
2019-01-04T19:43:53.055Z,94.50
2019-01-04T19:46:21.376Z,92.93
2019-01-04T19:48:49.706Z,91.67
2019-01-04T19:51:18.408Z,91.79
2019-01-04T19:53:46.828Z,92.04
2019-01-04T19:56:15.203Z,89.82
2019-01-04T19:58:43.527Z,90.00
2019-01-04T20:01:11.834Z,92.28
2019-01-04T20:03:40.350Z,90.18
2019-01-04T20:06:59.057Z,90.73
2019-01-04T20:10:04.892Z,89.00
2019-01-04T20:13:14.801Z,89.76
2019-01-04T20:15:53.432Z,93.42
2019-01-04T20:18:23.471Z,93.41
2019-01-04T20:21:02.163Z,91.00
2019-01-04T20:23:47.172Z,93.67
2019-01-04T20:26:33.134Z,92.09
2019-01-04T20:29:19.593Z,92.40
2019-01-04T20:31:52.200Z,93.04
2019-01-04T20:34:37.248Z,92.33
2019-01-04T20:37:16.013Z,89.57
2019-01-04T20:39:54.512Z,92.32
2019-01-04T20:42:42.513Z,90.93
2019-01-04T20:45:30.724Z,90.27
2019-01-04T20:48:16.712Z,91.89
2019-01-04T20:50:55.358Z,92.00
2019-01-04T20:53:25.381Z,91.05
2019-01-04T20:56:13.535Z,88.40
2019-01-04T20:58:46.180Z,87.49
2019-01-04T21:01:22.028Z,90.55
2019-01-04T21:04:08.100Z,88.67
2019-01-04T21:06:40.973Z,88.54
2019-01-04T21:09:16.799Z,90.18
2019-01-04T21:12:03.115Z,88.14
2019-01-04T21:14:49.175Z,87.85
2019-01-04T21:17:19.515Z,88.47
2019-01-04T21:19:52.874Z,89.15
2019-01-04T21:22:25.798Z,88.89
2019-01-04T21:24:58.168Z,91.51
2019-01-04T21:27:30.865Z,91.06
2019-01-04T21:30:01.173Z,91.23
2019-01-04T21:32:46.115Z,87.92
2019-01-04T21:35:27.826Z,89.20
2019-01-04T21:38:06.813Z,91.21
2019-01-04T21:40:36.767Z,90.26
2019-01-04T21:43:22.930Z,91.62
2019-01-04T21:46:11.293Z,89.92
2019-01-04T21:48:43.746Z,90.36
2019-01-04T21:51:13.692Z,89.71
2019-01-04T21:53:46.465Z,90.48
2019-01-04T21:56:16.415Z,89.02
2019-01-04T21:59:04.771Z,90.34
2019-01-04T22:01:34.719Z,92.08
2019-01-04T22:04:07.384Z,91.19
2019-01-04T22:06:53.446Z,88.05
2019-01-04T22:09:23.393Z,88.98
2019-01-04T22:11:56.457Z,86.40
2019-01-04T22:14:29.374Z,87.81
2019-01-04T22:17:15.259Z,89.45
2019-01-04T22:19:57.068Z,89.69
2019-01-04T22:22:39.377Z,86.09
2019-01-04T22:25:15.285Z,88.13
2019-01-04T22:28:01.136Z,86.33
2019-01-04T22:30:47.171Z,88.51
2019-01-04T22:33:33.613Z,90.61
2019-01-04T22:36:03.563Z,93.17
2019-01-04T22:38:39.255Z,91.60
2019-01-04T22:41:09.213Z,89.86
2019-01-04T22:43:41.634Z,88.85
2019-01-04T22:46:27.634Z,89.60
2019-01-04T22:49:06.461Z,85.36
2019-01-04T22:51:38.879Z,88.08
2019-01-04T22:54:24.875Z,89.60
2019-01-04T22:56:54.828Z,89.45
2019-01-04T22:59:28.025Z,88.69
2019-01-04T23:02:06.718Z,94.38
2019-01-04T23:04:45.131Z,91.40
2019-01-04T23:07:18.145Z,87.55
2019-01-04T23:09:56.965Z,87.76
2019-01-04T23:12:32.395Z,92.17
2019-01-04T23:15:20.592Z,93.97
2019-01-04T23:17:50.565Z,88.87
2019-01-04T23:20:29.673Z,85.83
2019-01-04T23:23:08.634Z,86.99
2019-01-04T23:25:50.235Z,90.03
2019-01-04T23:28:36.307Z,88.75
2019-01-04T23:31:15.339Z,87.40
2019-01-04T23:33:57.100Z,88.59
2019-01-04T23:36:35.886Z,89.44
2019-01-04T23:39:09.575Z,88.14
2019-01-04T23:41:48.428Z,88.04
2019-01-04T23:44:34.286Z,87.25
2019-01-04T23:47:07.013Z,87.95
2019-01-04T23:49:36.965Z,91.53
2019-01-04T23:52:07.008Z,87.87
2019-01-04T23:54:42.899Z,89.48
2019-01-04T23:57:12.869Z,90.68
